Time;durP1;ratioP1;P1;durP2;ratioP2;P2;SDS_P1;SDS_P2;PMS_P1;PMS_P2;Temp;Humidity;BMP_temperature;BMP_pressure;BME280_temperature;BME280_humidity;BME280_pressure;Samples;Min_cycle;Max_cycle;Signal;HPM_P1;HPM_P2
2023/05/17 00:01:21;;;;;;;7.53;1.88;;;12.20;53.40;;;;;;5016791;28;20049;-54
2023/05/17 00:03:48;;;;;;;6.30;1.65;;;12.20;53.40;;;;;;5019357;28;20049;-55
2023/05/17 00:06:16;;;;;;;8.73;1.92;;;12.10;53.40;;;;;;5014254;28;20054;-53
2023/05/17 00:08:43;;;;;;;8.45;1.63;;;12.10;53.50;;;;;;5018426;28;20053;-54
2023/05/17 00:11:10;;;;;;;5.22;1.45;;;12.10;53.60;;;;;;5015931;28;20061;-55
2023/05/17 00:13:38;;;;;;;10.98;2.28;;;12.00;53.50;;;;;;5010976;28;20072;-54
2023/05/17 00:16:08;;;;;;;11.38;1.85;;;12.00;53.60;;;;;;5012841;28;20056;-53
2023/05/17 00:18:35;;;;;;;10.88;1.90;;;12.00;53.80;;;;;;5013756;28;20054;-53
2023/05/17 00:21:02;;;;;;;10.25;1.83;;;12.00;53.80;;;;;;5015980;28;20824;-55
2023/05/17 00:23:29;;;;;;;7.38;2.08;;;11.90;53.80;;;;;;5019925;28;20049;-52
2023/05/17 00:25:57;;;;;;;8.32;2.00;;;11.90;53.90;;;;;;5018212;28;20398;-54
2023/05/17 00:28:24;;;;;;;6.68;2.10;;;11.80;54.00;;;;;;5011653;28;20062;-52
2023/05/17 00:30:51;;;;;;;10.80;2.47;;;11.80;54.10;;;;;;5016316;28;20053;-55
2023/05/17 00:33:20;;;;;;;12.82;2.10;;;11.70;54.20;;;;;;5018558;28;20053;-55
2023/05/17 00:35:47;;;;;;;7.15;2.67;;;11.70;54.30;;;;;;5015660;28;20057;-56
2023/05/17 00:38:14;;;;;;;10.90;2.05;;;11.70;54.40;;;;;;5015279;28;20053;-54
2023/05/17 00:40:41;;;;;;;10.40;2.08;;;11.60;54.40;;;;;;5017481;28;20053;-54
2023/05/17 00:43:09;;;;;;;8.38;2.08;;;11.60;54.50;;;;;;5009381;28;20052;-54
2023/05/17 00:45:36;;;;;;;8.18;2.38;;;11.60;54.60;;;;;;5012590;28;20046;-55
2023/05/17 00:48:04;;;;;;;8.55;2.22;;;11.60;54.70;;;;;;5017788;28;20505;-53
2023/05/17 00:50:32;;;;;;;9.65;2.13;;;11.60;54.70;;;;;;5011296;28;20492;-54
2023/05/17 00:53:00;;;;;;;12.85;2.53;;;11.60;55.20;;;;;;5015858;28;20061;-54
2023/05/17 00:55:28;;;;;;;4.20;1.60;;;11.50;54.80;;;;;;5016787;28;20076;-55
2023/05/17 00:57:55;;;;;;;7.25;1.70;;;11.50;54.80;;;;;;5016452;28;20058;-54
2023/05/17 01:00:22;;;;;;;9.20;1.80;;;11.50;54.80;;;;;;5014508;28;20430;-55
2023/05/17 01:02:50;;;;;;;6.10;1.77;;;11.50;54.90;;;;;;5022787;22;20053;-83
2023/05/17 01:05:18;;;;;;;6.80;2.20;;;11.50;54.90;;;;;;5023499;28;20065;-81
2023/05/17 01:07:46;;;;;;;10.27;2.35;;;11.50;55.00;;;;;;5027279;28;20041;-85
2023/05/17 01:10:14;;;;;;;12.60;2.33;;;11.50;55.10;;;;;;5022109;28;20052;-83
2023/05/17 01:12:55;;;;;;;7.00;1.73;;;11.40;55.00;;;;;;5020257;28;20085;-83
2023/05/17 01:15:28;;;;;;;8.90;2.00;;;11.40;55.10;;;;;;5018731;28;20416;-82
2023/05/17 01:18:04;;;;;;;12.00;2.65;;;11.40;55.20;;;;;;5022567;28;20048;-83
2023/05/17 01:20:36;;;;;;;4.60;2.03;;;11.40;55.70;;;;;;5022266;28;20493;-85
2023/05/17 01:23:20;;;;;;;6.18;2.20;;;11.40;55.20;;;;;;5021530;28;20056;-82
2023/05/17 01:25:56;;;;;;;6.43;1.88;;;11.40;55.40;;;;;;5027883;28;20053;-81
2023/05/17 01:28:26;;;;;;;7.28;1.85;;;11.40;55.50;;;;;;5022653;28;20512;-82
2023/05/17 01:30:57;;;;;;;9.00;2.65;;;11.30;55.50;;;;;;5019654;28;20065;-81
2023/05/17 01:33:25;;;;;;;7.85;2.35;;;11.30;55.70;;;;;;5027740;28;20061;-81
2023/05/17 01:35:52;;;;;;;6.70;2.20;;;11.30;56.20;;;;;;5020660;28;20060;-83
2023/05/17 01:38:19;;;;;;;11.43;3.08;;;11.20;55.70;;;;;;5023749;28;20053;-81
2023/05/17 01:40:52;;;;;;;7.57;2.63;;;11.20;55.80;;;;;;5003161;28;20052;-85
2023/05/17 01:43:26;;;;;;;12.27;2.97;;;11.20;55.90;;;;;;5021277;28;20065;-85
2023/05/17 01:46:00;;;;;;;12.38;2.83;;;11.20;55.90;;;;;;5019169;28;20096;-84
2023/05/17 01:48:34;;;;;;;10.85;2.90;;;11.20;56.00;;;;;;5021901;28;20359;-82
2023/05/17 01:51:02;;;;;;;;;;;11.20;56.00;;;;;;5027550;28;20072;-81
2023/05/17 01:53:32;;;;;;;5.95;1.92;;;11.20;55.90;;;;;;5026483;28;20407;-81
2023/05/17 01:56:04;;;;;;;8.55;2.90;;;11.20;55.80;;;;;;5023853;28;20420;-81
2023/05/17 01:58:39;;;;;;;5.82;2.38;;;11.20;55.90;;;;;;5020466;28;20080;-82
2023/05/17 02:01:09;;;;;;;13.00;2.53;;;11.20;56.00;;;;;;5019704;28;20080;-83
2023/05/17 02:03:36;;;;;;;9.35;2.67;;;11.20;56.10;;;;;;5021068;28;20063;-82
2023/05/17 02:06:04;;;;;;;10.25;2.58;;;11.20;56.30;;;;;;5020538;28;20060;-82
2023/05/17 02:08:31;;;;;;;11.68;2.70;;;11.20;56.40;;;;;;5020355;28;20428;-82
2023/05/17 02:10:59;;;;;;;7.25;2.83;;;11.10;56.40;;;;;;5019729;28;20052;-82
2023/05/17 02:13:26;;;;;;;7.78;2.53;;;11.20;57.00;;;;;;5022544;28;20056;-83
2023/05/17 02:15:55;;;;;;;8.57;2.63;;;11.10;56.50;;;;;;5020408;28;20461;-82
2023/05/17 02:18:22;;;;;;;11.98;3.35;;;11.10;56.50;;;;;;5020618;28;20056;-86
2023/05/17 02:20:49;;;;;;;11.25;4.25;;;11.10;56.60;;;;;;5021155;28;20457;-84
2023/05/17 02:23:17;;;;;;;9.25;3.50;;;11.10;56.70;;;;;;5020917;28;20050;-84
2023/05/17 02:25:44;;;;;;;14.70;4.05;;;11.10;56.70;;;;;;5027400;28;20045;-82
2023/05/17 02:28:11;;;;;;;9.13;3.17;;;11.10;56.80;;;;;;5021205;28;20054;-82
2023/05/17 02:30:39;;;;;;;7.80;3.20;;;11.00;56.90;;;;;;5020776;28;20509;-83
2023/05/17 02:33:08;;;;;;;7.57;2.97;;;11.00;56.90;;;;;;5020155;28;20060;-82
2023/05/17 02:35:37;;;;;;;12.85;4.05;;;11.00;57.10;;;;;;5021351;28;20057;-85
2023/05/17 02:38:05;;;;;;;7.20;3.10;;;11.00;57.20;;;;;;5021816;28;20057;-87
2023/05/17 02:40:32;;;;;;;8.65;2.97;;;11.00;57.30;;;;;;5019106;28;20054;-85
2023/05/17 02:43:00;;;;;;;8.45;2.63;;;11.00;57.30;;;;;;5019335;28;20049;-87
2023/05/17 02:45:27;;;;;;;7.57;2.92;;;11.00;57.30;;;;;;5020668;28;20057;-84
2023/05/17 02:47:54;;;;;;;9.40;3.08;;;11.00;57.30;;;;;;5020948;28;20050;-85
2023/05/17 02:50:25;;;;;;;5.30;2.42;;;11.00;57.30;;;;;;5023362;28;20053;-85
2023/05/17 02:52:52;;;;;;;4.15;2.05;;;11.00;57.30;;;;;;5023977;28;20049;-84
2023/05/17 02:55:20;;;;;;;5.15;1.90;;;11.00;57.20;;;;;;5024410;28;20061;-86
2023/05/17 02:57:47;;;;;;;8.10;2.20;;;11.10;57.20;;;;;;5023881;28;20064;-86
2023/05/17 03:00:16;;;;;;;4.90;2.53;;;11.10;57.10;;;;;;5023048;28;20049;-84
2023/05/17 03:02:44;;;;;;;6.28;2.33;;;11.10;57.00;;;;;;5024416;28;20052;-85
2023/05/17 03:05:11;;;;;;;8.10;2.63;;;11.10;57.00;;;;;;5024311;28;20046;-84
2023/05/17 03:07:40;;;;;;;9.13;2.85;;;11.10;56.80;;;;;;5022804;28;20064;-86
2023/05/17 03:10:08;;;;;;;6.47;2.70;;;11.10;56.80;;;;;;5024491;28;20060;-86
2023/05/17 03:12:35;;;;;;;8.00;2.60;;;11.10;56.70;;;;;;5023308;28;20053;-85
2023/05/17 03:15:02;;;;;;;12.35;3.00;;;11.10;56.60;;;;;;5023942;28;20046;-85
2023/05/17 03:17:30;;;;;;;6.80;3.00;;;11.10;56.60;;;;;;5024399;28;20061;-87
2023/05/17 03:19:57;;;;;;;9.77;3.35;;;11.10;56.60;;;;;;5025853;28;20520;-85
2023/05/17 03:22:25;;;;;;;6.97;2.80;;;11.10;56.60;;;;;;5024565;28;20064;-84
2023/05/17 03:24:53;;;;;;;5.93;2.58;;;11.10;56.60;;;;;;5025069;28;20045;-85
2023/05/17 03:27:21;;;;;;;6.00;2.47;;;11.10;56.60;;;;;;5030431;28;20056;-85
2023/05/17 03:29:48;;;;;;;5.15;2.80;;;11.10;56.60;;;;;;5024498;28;20053;-85
2023/05/17 03:32:15;;;;;;;5.32;2.47;;;11.10;56.60;;;;;;5021306;28;20057;-85
2023/05/17 03:34:43;;;;;;;7.72;3.05;;;11.10;56.60;;;;;;5024334;28;20060;-87
2023/05/17 03:37:10;;;;;;;9.50;3.58;;;11.10;56.60;;;;;;5024681;28;20068;-86
2023/05/17 03:39:37;;;;;;;11.63;3.83;;;11.00;56.60;;;;;;5023940;28;20064;-84
2023/05/17 03:42:08;;;;;;;11.95;3.78;;;11.00;56.80;;;;;;5022497;28;20065;-84
2023/05/17 03:44:36;;;;;;;13.38;5.25;;;11.00;56.90;;;;;;5022776;28;20050;-84
2023/05/17 03:47:03;;;;;;;8.68;3.05;;;11.00;56.90;;;;;;5022584;28;20068;-84
2023/05/17 03:49:30;;;;;;;8.30;3.55;;;11.00;57.00;;;;;;5028382;28;20060;-85
2023/05/17 03:51:58;;;;;;;6.97;3.50;;;11.00;57.00;;;;;;5023698;28;20053;-85
2023/05/17 03:54:25;;;;;;;8.90;3.80;;;10.90;57.00;;;;;;5022529;28;20064;-84
2023/05/17 03:56:53;;;;;;;9.38;3.60;;;11.00;57.20;;;;;;5023194;28;20049;-84
2023/05/17 03:59:21;;;;;;;7.88;3.40;;;10.90;57.30;;;;;;5030539;28;20053;-84
2023/05/17 04:01:49;;;;;;;10.80;3.25;;;10.90;57.30;;;;;;5020224;28;20057;-84
2023/05/17 04:04:17;;;;;;;6.47;3.25;;;10.90;57.30;;;;;;5024508;28;20058;-85
2023/05/17 04:06:45;;;;;;;8.48;3.22;;;10.90;57.40;;;;;;5021764;28;20049;-84
2023/05/17 04:09:14;;;;;;;10.27;3.38;;;10.90;57.50;;;;;;5023905;28;20049;-84
2023/05/17 04:11:42;;;;;;;6.90;3.03;;;10.90;57.50;;;;;;5023469;28;20049;-84
2023/05/17 04:14:09;;;;;;;11.50;3.33;;;11.00;57.70;;;;;;5024824;28;20049;-85
2023/05/17 04:16:38;;;;;;;6.38;3.15;;;10.90;57.70;;;;;;5022920;28;20056;-84
2023/05/17 04:19:05;;;;;;;8.05;3.60;;;11.00;57.80;;;;;;5025546;28;20082;-85
2023/05/17 04:21:32;;;;;;;13.00;3.55;;;10.90;58.30;;;;;;5023209;28;20057;-88
2023/05/17 04:24:00;;;;;;;10.82;4.00;;;11.00;57.90;;;;;;5023849;28;20058;-85
2023/05/17 04:26:27;;;;;;;13.23;4.47;;;11.00;58.10;;;;;;5021840;28;20057;-87
2023/05/17 04:28:54;;;;;;;8.82;3.83;;;11.00;58.20;;;;;;5028987;28;20432;-86
2023/05/17 04:31:22;;;;;;;8.48;3.50;;;11.00;58.30;;;;;;5026761;28;20050;-87
2023/05/17 04:33:51;;;;;;;7.30;3.20;;;10.90;58.30;;;;;;5023354;28;20512;-85
2023/05/17 04:36:18;;;;;;;15.63;4.60;;;10.90;58.50;;;;;;5022232;28;20060;-86
2023/05/17 04:38:46;;;;;;;9.85;3.83;;;10.90;58.70;;;;;;5023306;28;20393;-85
2023/05/17 04:41:13;;;;;;;9.55;4.57;;;10.90;58.90;;;;;;5023304;28;20425;-89
2023/05/17 04:43:40;;;;;;;9.23;4.68;;;10.90;59.10;;;;;;5023019;28;20485;-85
2023/05/17 04:46:08;;;;;;;11.38;4.82;;;10.90;59.50;;;;;;5021623;28;20144;-86
2023/05/17 04:48:35;;;;;;;15.18;5.22;;;10.90;59.60;;;;;;5022541;28;20060;-86
2023/05/17 04:51:05;;;;;;;14.73;5.28;;;10.90;60.00;;;;;;5020573;28;20061;-86
2023/05/17 04:53:32;;;;;;;14.68;5.18;;;11.00;60.30;;;;;;5022721;28;20060;-85
2023/05/17 04:56:00;;;;;;;13.65;5.22;;;11.00;60.50;;;;;;5022342;28;20057;-86
2023/05/17 04:58:27;;;;;;;19.65;6.00;;;11.00;61.00;;;;;;5023044;28;20060;-86
2023/05/17 05:00:54;;;;;;;16.40;6.20;;;11.00;61.00;;;;;;5021666;28;20053;-85
2023/05/17 05:03:23;;;;;;;15.73;6.38;;;11.00;61.10;;;;;;5024603;28;20057;-87
2023/05/17 05:05:50;;;;;;;12.68;5.10;;;11.00;61.40;;;;;;5041632;28;20404;-86
2023/05/17 05:08:19;;;;;;;17.88;5.57;;;11.00;61.50;;;;;;5041343;28;20447;-84
2023/05/17 05:10:46;;;;;;;11.95;5.75;;;11.00;61.70;;;;;;5042378;28;20045;-84
2023/05/17 05:13:14;;;;;;;20.52;5.78;;;11.00;61.90;;;;;;5041684;28;20056;-84
2023/05/17 05:15:41;;;;;;;12.82;5.75;;;11.00;62.20;;;;;;5041025;28;20400;-85
2023/05/17 05:18:08;;;;;;;16.02;6.45;;;11.00;62.20;;;;;;5042683;28;20052;-84
2023/05/17 05:20:35;;;;;;;29.83;7.13;;;11.00;62.50;;;;;;5041710;28;20409;-84
2023/05/17 05:23:04;;;;;;;18.88;6.35;;;11.00;62.60;;;;;;5042015;28;20068;-85
2023/05/17 05:25:34;;;;;;;19.13;9.10;;;11.10;62.80;;;;;;5040423;28;20044;-85
2023/05/17 05:28:01;;;;;;;18.58;7.50;;;11.00;63.00;;;;;;5040702;28;20053;-84
2023/05/17 05:30:28;;;;;;;18.42;7.18;;;11.10;63.20;;;;;;5040528;28;20484;-84
2023/05/17 05:32:56;;;;;;;21.70;7.80;;;11.10;63.10;;;;;;5041559;28;20060;-86
2023/05/17 05:35:27;;;;;;;33.05;11.45;;;11.10;63.20;;;;;;5039957;28;20251;-84
2023/05/17 05:37:55;;;;;;;26.77;9.77;;;11.10;63.30;;;;;;5042672;28;20056;-84
2023/05/17 05:40:22;;;;;;;20.05;8.38;;;11.10;63.40;;;;;;5040538;28;20053;-84
2023/05/17 05:42:51;;;;;;;31.10;10.18;;;11.10;63.40;;;;;;5043510;28;20409;-85
2023/05/17 05:45:20;;;;;;;21.65;10.18;;;11.10;63.60;;;;;;5040538;28;20052;-83
2023/05/17 05:47:48;;;;;;;27.30;12.27;;;11.20;63.70;;;;;;5041711;28;20060;-83
2023/05/17 05:50:15;;;;;;;34.25;14.40;;;11.20;63.90;;;;;;5041107;28;20239;-83
2023/05/17 05:52:42;;;;;;;35.70;14.50;;;11.20;64.00;;;;;;5042234;28;20063;-84
2023/05/17 05:55:10;;;;;;;35.30;14.82;;;11.20;64.10;;;;;;5040216;28;20063;-84
2023/05/17 05:57:37;;;;;;;36.67;15.88;;;11.30;64.10;;;;;;5041175;28;20060;-83
2023/05/17 06:00:08;;;;;;;55.33;22.15;;;11.30;64.20;;;;;;5039809;28;20579;-83
2023/05/17 06:02:36;;;;;;;50.03;20.48;;;11.30;64.10;;;;;;5038194;28;20061;-82
2023/05/17 06:05:03;;;;;;;41.13;16.55;;;11.30;63.80;;;;;;5039036;28;20037;-83
2023/05/17 06:07:31;;;;;;;59.67;22.25;;;11.40;63.80;;;;;;5047105;28;20049;-83
2023/05/17 06:09:58;;;;;;;43.03;18.60;;;11.40;63.60;;;;;;5040325;28;20045;-85
2023/05/17 06:12:25;;;;;;;41.42;16.38;;;11.40;63.50;;;;;;5040740;28;20048;-84
2023/05/17 06:14:52;;;;;;;43.00;17.08;;;11.40;63.30;;;;;;5040268;28;20048;-86
2023/05/17 06:17:21;;;;;;;40.55;17.20;;;11.40;63.20;;;;;;5039891;28;20056;-87
2023/05/17 06:19:49;;;;;;;47.25;18.77;;;11.40;63.30;;;;;;5038650;28;20059;-86
2023/05/17 06:22:16;;;;;;;49.95;19.38;;;11.40;63.20;;;;;;5040018;28;20393;-84
2023/05/17 06:24:43;;;;;;;55.45;21.52;;;11.40;63.30;;;;;;5038732;28;20053;-85
2023/05/17 06:27:10;;;;;;;49.95;20.75;;;11.40;63.40;;;;;;5042047;28;20045;-85
2023/05/17 06:29:38;;;;;;;50.17;20.50;;;11.50;63.50;;;;;;5040859;28;20044;-85
2023/05/17 06:32:06;;;;;;;40.65;18.63;;;11.40;63.50;;;;;;5039412;28;20049;-85
2023/05/17 06:34:34;;;;;;;54.35;22.40;;;11.40;63.60;;;;;;5041048;28;20045;-84
2023/05/17 06:37:02;;;;;;;53.70;20.75;;;11.40;64.00;;;;;;5040020;28;20053;-85
2023/05/17 06:39:29;;;;;;;61.50;25.80;;;11.40;64.10;;;;;;5041054;28;20056;-85
2023/05/17 06:41:56;;;;;;;59.97;23.80;;;11.40;64.40;;;;;;5038781;28;20053;-86
2023/05/17 06:44:24;;;;;;;66.63;27.52;;;11.40;64.50;;;;;;5039071;28;20049;-86
2023/05/17 06:46:51;;;;;;;61.60;24.15;;;11.40;64.80;;;;;;5038249;28;20057;-84
2023/05/17 06:49:18;;;;;;;61.45;26.73;;;11.40;65.10;;;;;;5040785;28;20060;-85
2023/05/17 06:51:47;;;;;;;66.13;28.05;;;11.40;65.40;;;;;;5039199;28;20397;-84
2023/05/17 06:54:15;;;;;;;58.50;27.85;;;11.40;65.50;;;;;;5040243;28;20045;-84
2023/05/17 06:56:43;;;;;;;75.35;29.55;;;11.40;65.50;;;;;;5045523;28;20052;-85
2023/05/17 06:59:10;;;;;;;71.53;28.40;;;11.40;65.80;;;;;;5038534;28;20060;-85
2023/05/17 07:01:37;;;;;;;74.03;30.23;;;11.40;65.90;;;;;;5037906;28;20064;-85
2023/05/17 07:04:05;;;;;;;66.10;28.75;;;11.40;66.30;;;;;;5043770;28;20056;-85
2023/05/17 07:06:32;;;;;;;61.85;29.60;;;11.40;66.30;;;;;;5041453;28;20060;-83
2023/05/17 07:09:01;;;;;;;63.25;29.33;;;11.50;66.60;;;;;;5039412;28;20424;-83
2023/05/17 07:11:28;;;;;;;61.15;31.98;;;11.50;66.60;;;;;;5038527;28;20053;-84
2023/05/17 07:13:55;;;;;;;59.60;30.30;;;11.60;66.40;;;;;;5039931;28;20056;-84
2023/05/17 07:16:23;;;;;;;67.85;29.92;;;11.70;66.20;;;;;;5038892;28;20053;-84
2023/05/17 07:18:50;;;;;;;57.65;28.90;;;11.70;66.30;;;;;;5039877;28;20392;-85
2023/05/17 07:21:17;;;;;;;56.30;28.05;;;11.80;65.80;;;;;;5040046;28;20060;-84
2023/05/17 07:23:54;;;;;;;62.95;29.80;;;11.90;65.30;;;;;;5039991;28;20079;-84
2023/05/17 07:26:22;;;;;;;53.60;26.85;;;12.00;64.90;;;;;;5038341;28;20052;-83
2023/05/17 07:28:50;;;;;;;43.05;19.95;;;12.00;64.00;;;;;;5045555;28;20406;-86
2023/05/17 07:31:18;;;;;;;50.38;23.25;;;12.00;62.90;;;;;;5042465;28;20406;-85
2023/05/17 07:33:45;;;;;;;48.78;24.33;;;12.10;62.80;;;;;;5040629;28;20052;-85
2023/05/17 07:36:12;;;;;;;55.72;25.13;;;12.20;62.70;;;;;;5040530;28;20136;-83
2023/05/17 07:38:40;;;;;;;46.85;22.65;;;12.20;62.20;;;;;;5043248;28;20084;-85
2023/05/17 07:41:08;;;;;;;47.38;21.98;;;12.30;61.40;;;;;;5041770;28;20053;-85
2023/05/17 07:43:37;;;;;;;42.08;20.52;;;12.40;60.50;;;;;;5042041;28;20053;-85
2023/05/17 07:46:05;;;;;;;47.22;21.08;;;12.40;61.50;;;;;;5042623;28;20052;-83
2023/05/17 07:48:32;;;;;;;43.33;20.35;;;12.50;61.00;;;;;;5049968;28;20044;-86
2023/05/17 07:50:59;;;;;;;42.20;18.30;;;12.60;59.80;;;;;;5044201;28;20053;-84
2023/05/17 07:53:27;;;;;;;34.80;15.82;;;12.70;59.90;;;;;;5044017;28;20057;-83
2023/05/17 07:55:54;;;;;;;36.25;15.32;;;12.70;58.10;;;;;;5043051;28;20049;-83
2023/05/17 07:58:21;;;;;;;34.45;15.85;;;12.70;58.00;;;;;;5043890;28;20535;-89
2023/05/17 08:00:50;;;;;;;33.60;15.80;;;12.80;57.80;;;;;;5042363;28;20059;-87
2023/05/17 08:03:18;;;;;;;32.13;16.20;;;12.90;57.60;;;;;;5043193;28;20064;-88
2023/05/17 08:05:45;;;;;;;41.15;16.13;;;12.90;57.40;;;;;;5043314;28;20045;-86
2023/05/17 08:08:12;;;;;;;39.00;16.90;;;13.00;57.80;;;;;;5042867;28;20064;-87
2023/05/17 08:10:39;;;;;;;39.08;17.75;;;13.10;58.20;;;;;;5043581;28;20049;-88
2023/05/17 08:13:07;;;;;;;38.70;17.65;;;13.20;57.90;;;;;;5043877;28;20057;-88
2023/05/17 08:15:34;;;;;;;36.08;16.48;;;13.20;57.50;;;;;;5041176;28;20875;-87
2023/05/17 08:18:03;;;;;;;30.90;13.95;;;13.30;57.30;;;;;;5043408;28;20049;-90
2023/05/17 08:20:30;;;;;;;23.80;10.73;;;13.40;56.70;;;;;;5038793;28;20060;-85
2023/05/17 09:01:08;;;;;;;18.58;5.68;;;14.00;52.20;;;;;;5057202;28;20500;-90
2023/05/17 09:03:41;;;;;;;14.90;6.20;;;14.00;51.00;;;;;;5043388;28;20053;-91
2023/05/17 09:06:09;;;;;;;15.60;5.65;;;14.10;51.20;;;;;;5042029;28;20420;-87
2023/05/17 09:08:37;;;;;;;15.27;5.47;;;14.10;50.80;;;;;;5042590;28;20599;-90
2023/05/17 09:11:05;;;;;;;16.70;4.60;;;14.10;51.40;;;;;;5042801;28;20060;-90
2023/05/17 09:13:32;;;;;;;21.23;5.53;;;14.10;51.60;;;;;;5042873;28;20580;-83
2023/05/17 09:15:59;;;;;;;17.58;5.45;;;14.10;51.00;;;;;;5041845;28;20111;-85
2023/05/17 09:18:31;;;;;;;16.98;4.35;;;14.10;50.90;;;;;;5044587;28;20056;-90
2023/05/17 09:21:04;;;;;;;14.05;3.58;;;14.10;50.20;;;;;;5042328;28;20519;-86
2023/05/17 09:23:32;;;;;;;14.90;3.83;;;14.10;49.10;;;;;;5042664;28;20049;-89
2023/05/17 09:26:04;;;;;;;16.40;2.95;;;14.20;50.10;;;;;;5042797;28;20500;-88
2023/05/17 09:28:38;;;;;;;12.40;3.10;;;14.20;48.90;;;;;;5042712;28;20127;-88
2023/05/17 09:31:07;;;;;;;7.65;2.03;;;14.20;48.00;;;;;;5040375;28;20126;-90
2023/05/17 09:33:35;;;;;;;13.95;2.30;;;14.20;46.00;;;;;;5043460;28;20060;-88
2023/05/17 09:36:04;;;;;;;14.85;2.25;;;14.30;45.40;;;;;;5040749;28;20049;-88
2023/05/17 09:38:31;;;;;;;10.20;2.95;;;14.30;44.50;;;;;;5042578;28;20095;-89
2023/05/17 09:41:01;;;;;;;10.15;2.53;;;14.50;45.10;;;;;;5040929;28;20041;-88
2023/05/17 09:43:30;;;;;;;9.23;2.13;;;14.50;44.90;;;;;;5042221;28;20048;-84
2023/05/17 09:45:58;;;;;;;6.45;1.85;;;14.60;45.10;;;;;;5040327;28;20053;-84
2023/05/17 09:48:27;;;;;;;7.43;1.85;;;14.70;46.50;;;;;;5041320;28;20053;-84
2023/05/17 09:50:54;;;;;;;11.30;2.38;;;14.70;45.40;;;;;;5040845;28;20061;-90
2023/05/17 09:53:27;;;;;;;8.90;2.15;;;14.80;45.60;;;;;;5041342;28;20582;-91
2023/05/17 09:55:57;;;;;;;13.30;2.35;;;14.80;44.00;;;;;;5041285;28;20144;-91
2023/05/17 09:58:25;;;;;;;6.38;1.83;;;14.90;45.10;;;;;;5041108;28;20056;-91
2023/05/17 10:00:54;;;;;;;10.73;2.63;;;15.00;44.80;;;;;;5038969;28;20053;-90
2023/05/17 10:03:22;;;;;;;13.65;2.53;;;15.00;43.50;;;;;;5047133;28;20060;-89
2023/05/17 10:05:53;;;;;;;11.25;2.33;;;15.00;42.40;;;;;;5041222;28;20056;-90
2023/05/17 10:08:24;;;;;;;12.90;1.90;;;15.00;42.60;;;;;;5048817;28;20488;-90
2023/05/17 10:10:59;;;;;;;6.35;1.95;;;15.10;44.20;;;;;;5040990;28;20072;-89
2023/05/17 10:13:33;;;;;;;11.13;2.45;;;15.10;43.80;;;;;;5040998;28;20065;-90
2023/05/17 10:16:02;;;;;;;12.40;2.08;;;15.20;43.50;;;;;;5039753;28;20852;-84
2023/05/17 10:18:37;;;;;;;13.68;2.15;;;15.30;43.80;;;;;;5045925;28;20049;-87
2023/05/17 10:21:05;;;;;;;11.48;2.50;;;15.30;44.10;;;;;;5041197;28;20068;-88
2023/05/17 10:23:33;;;;;;;13.50;2.72;;;15.40;43.80;;;;;;5040453;28;20055;-87
2023/05/17 10:26:02;;;;;;;12.23;2.05;;;15.30;42.80;;;;;;5047682;28;20049;-90
2023/05/17 10:28:30;;;;;;;12.60;2.60;;;15.30;43.70;;;;;;5039946;28;20055;-90
2023/05/17 10:30:59;;;;;;;11.55;2.92;;;15.30;44.20;;;;;;5045917;28;20063;-90
2023/05/17 10:33:27;;;;;;;12.48;2.47;;;15.30;43.20;;;;;;5040315;28;20052;-89
2023/05/17 10:35:56;;;;;;;8.95;2.13;;;15.20;42.30;;;;;;5039458;28;20431;-90
2023/05/17 10:38:24;;;;;;;7.63;1.58;;;15.20;43.60;;;;;;5042040;28;20045;-87
2023/05/17 10:40:53;;;;;;;7.85;2.17;;;15.20;43.90;;;;;;5042127;28;20049;-91
2023/05/17 10:43:24;;;;;;;10.80;2.42;;;15.20;43.50;;;;;;5048633;28;20053;-88
2023/05/17 10:45:53;;;;;;;15.25;2.30;;;15.30;43.40;;;;;;5038983;28;20479;-91
2023/05/17 10:48:21;;;;;;;12.38;2.60;;;15.30;42.70;;;;;;5042012;28;20156;-89
2023/05/17 10:50:48;;;;;;;15.20;2.60;;;15.40;42.90;;;;;;5040868;28;20053;-85
2023/05/17 10:53:16;;;;;;;18.85;3.00;;;15.40;43.10;;;;;;5041581;28;20056;-91
2023/05/17 10:55:44;;;;;;;9.82;2.20;;;15.40;44.10;;;;;;5046546;28;20056;-90
2023/05/17 10:58:19;;;;;;;10.63;2.53;;;15.40;43.90;;;;;;5042986;28;20060;-89
2023/05/17 11:00:49;;;;;;;11.07;2.25;;;15.50;44.10;;;;;;5039394;28;20484;-91
2023/05/17 11:03:18;;;;;;;14.35;3.17;;;15.50;42.90;;;;;;5041756;28;20056;-91
2023/05/17 11:06:13;;;;;;;9.57;1.95;;;15.50;42.90;;;;;;5040332;28;20061;-87
2023/05/17 11:08:46;;;;;;;15.60;2.60;;;15.50;41.50;;;;;;5040282;28;20053;-89
2023/05/17 11:11:17;;;;;;;12.35;2.40;;;15.60;42.40;;;;;;5042867;28;20148;-90
2023/05/17 11:13:46;;;;;;;15.57;2.45;;;15.60;41.90;;;;;;5043494;28;20056;-92
2023/05/17 11:16:18;;;;;;;8.95;2.13;;;15.60;40.60;;;;;;5044090;28;20049;-87
2023/05/17 11:18:49;;;;;;;11.80;2.15;;;15.70;41.00;;;;;;5050293;28;20048;-90
2023/05/17 11:21:17;;;;;;;9.82;1.83;;;15.70;42.00;;;;;;5044785;28;20060;-88
2023/05/17 11:23:46;;;;;;;10.70;2.28;;;15.70;42.20;;;;;;5044940;28;20535;-92
2023/05/17 11:26:18;;;;;;;8.90;2.00;;;15.80;42.10;;;;;;5044045;28;20408;-90
2023/05/17 11:28:45;;;;;;;5.07;1.70;;;15.80;42.00;;;;;;5044471;28;20068;-91
2023/05/17 11:31:12;;;;;;;13.00;2.47;;;15.90;42.40;;;;;;5041943;28;20049;-90
2023/05/17 11:33:43;;;;;;;14.02;2.55;;;15.90;41.30;;;;;;5045739;28;20056;-88
2023/05/17 11:36:19;;;;;;;7.50;1.90;;;16.00;40.60;;;;;;5050691;28;20401;-88
2023/05/17 11:38:49;;;;;;;11.32;2.97;;;16.00;40.70;;;;;;5044073;28;20064;-91
2023/05/17 11:41:18;;;;;;;11.45;2.13;;;16.00;39.80;;;;;;5044174;28;20060;-90
2023/05/17 11:43:47;;;;;;;13.30;2.72;;;16.00;40.00;;;;;;5044205;28;20057;-89
2023/05/17 11:46:20;;;;;;;7.68;2.13;;;16.00;40.30;;;;;;5042145;28;20052;-90
2023/05/17 11:48:50;;;;;;;14.90;2.55;;;16.00;40.50;;;;;;5050978;28;20060;-88
2023/05/17 11:51:18;;;;;;;11.43;2.50;;;16.00;38.60;;;;;;5044561;28;20509;-90
2023/05/17 11:53:47;;;;;;;14.75;2.47;;;16.10;39.90;;;;;;5043532;28;20057;-90
2023/05/17 11:59:38;;;;;;;12.77;2.45;;;16.10;40.20;;;;;;5050640;28;20052;-89
2023/05/17 12:02:05;;;;;;;13.48;3.35;;;16.20;40.50;;;;;;5040755;28;20581;-89
2023/05/17 12:04:37;;;;;;;5.38;1.98;;;16.30;40.30;;;;;;5044237;28;20515;-83
2023/05/17 12:07:05;;;;;;;11.20;2.03;;;16.30;40.10;;;;;;5041714;28;20048;-84
2023/05/17 12:09:32;;;;;;;13.35;2.85;;;16.30;39.40;;;;;;5042492;28;20053;-83
2023/05/17 12:12:03;;;;;;;9.30;2.60;;;16.40;38.40;;;;;;5041392;28;20056;-84
2023/05/17 12:14:30;;;;;;;10.45;2.70;;;16.40;39.60;;;;;;5042267;28;20053;-83
2023/05/17 12:17:01;;;;;;;18.50;2.53;;;16.50;39.20;;;;;;5040049;28;20286;-83
2023/05/17 12:19:29;;;;;;;13.90;2.75;;;16.50;39.10;;;;;;5048625;28;20060;-82
2023/05/17 12:22:08;;;;;;;9.45;2.15;;;16.50;39.30;;;;;;5038416;28;20079;-85
2023/05/17 12:24:38;;;;;;;11.25;2.60;;;16.50;39.60;;;;;;5044537;28;20523;-84
2023/05/17 12:27:06;;;;;;;14.90;2.53;;;16.60;39.80;;;;;;5042942;28;20061;-83
2023/05/17 12:29:33;;;;;;;10.65;2.40;;;16.60;38.90;;;;;;5042980;28;20499;-82
2023/05/17 12:32:02;;;;;;;12.32;2.50;;;16.60;40.00;;;;;;5042220;28;20490;-83
2023/05/17 12:34:30;;;;;;;9.23;2.05;;;16.60;39.20;;;;;;5043679;28;20404;-83
2023/05/17 12:36:58;;;;;;;9.73;2.10;;;16.70;38.80;;;;;;5043696;28;20060;-83
2023/05/17 12:39:27;;;;;;;9.68;2.17;;;16.70;38.60;;;;;;5050338;28;20056;-83
2023/05/17 12:41:54;;;;;;;14.50;2.47;;;16.70;37.20;;;;;;5042231;28;20059;-81
2023/05/17 12:44:21;;;;;;;8.98;2.20;;;16.70;38.00;;;;;;5043386;28;20052;-84
2023/05/17 12:46:52;;;;;;;12.52;2.92;;;16.80;38.20;;;;;;5047232;28;20147;-83
2023/05/17 12:49:21;;;;;;;9.82;2.03;;;16.80;37.80;;;;;;5043756;28;20060;-82
2023/05/17 12:51:48;;;;;;;6.57;1.90;;;16.80;37.60;;;;;;5042745;28;20499;-81
2023/05/17 12:54:27;;;;;;;9.85;2.25;;;16.80;37.50;;;;;;5042875;28;20055;-85
2023/05/17 12:56:55;;;;;;;15.88;2.70;;;16.80;37.40;;;;;;5044102;28;20049;-83
2023/05/17 12:59:24;;;;;;;7.07;2.08;;;16.80;37.90;;;;;;5043617;28;20068;-85
2023/05/17 13:01:54;;;;;;;7.97;1.83;;;16.80;37.60;;;;;;5037651;28;20064;-82
2023/05/17 13:04:30;;;;;;;9.35;2.38;;;16.90;38.10;;;;;;5040463;28;20080;-84
2023/05/17 13:06:59;;;;;;;10.40;2.33;;;16.80;37.00;;;;;;5042767;28;20063;-84
2023/05/17 13:09:31;;;;;;;12.23;2.72;;;16.80;37.10;;;;;;5041660;28;20324;-84
2023/05/17 13:11:59;;;;;;;13.00;2.17;;;16.90;37.90;;;;;;5042341;28;20057;-84
2023/05/17 13:14:35;;;;;;;9.85;2.00;;;16.90;38.30;;;;;;5044928;28;20419;-85
2023/05/17 13:17:02;;;;;;;7.88;1.85;;;17.00;38.80;;;;;;5046009;28;20040;-85
2023/05/17 13:19:30;;;;;;;11.25;1.77;;;17.00;39.10;;;;;;5041507;28;20492;-83
2023/05/17 13:21:57;;;;;;;11.95;2.55;;;17.10;38.10;;;;;;5041602;28;20049;-84
2023/05/17 13:24:27;;;;;;;9.93;2.30;;;17.20;38.60;;;;;;5042250;28;20492;-84
2023/05/17 13:26:54;;;;;;;13.43;2.20;;;17.20;38.40;;;;;;5041832;28;20072;-83